Zim Panama — VSWW5 — position and weather

sailwx.info

Track history (hours):
 
Tides and Currents Weather Stations Pressure Air Temp Water Temp Dewpoint Dewpoint Depression Visibility Wind Speed Wind Dir Waves Ship Positions

Zim Panama

Last reported at 2014-Sep-20 13:32 UTC. Time now 2014-Sep-20 14:01 UTC.
Position N 39°26' W 000°20'.

Length 294.12 m; beam 32.2 m; draft 9.45 m.

Type: Ship (hazmat cat C). MMSI: 235474000.

Date/timePositionNaut miles runAvg speedWind from/ knotsBaromVisibWave heightAir tempDewpointWater temp
2014-Sep-20 13:32N 39°26' W 000°20'0 0.0
2014-Sep-20 12:32N 39°26' W 000°20'0 0.0
2014-Sep-20 11:32N 39°26' W 000°20'0 0.1
2014-Sep-20 10:33N 39°26' W 000°19'6 6.1
2014-Sep-20 09:33N 39°25' W 000°12'8315.8
2014-Sep-20 04:18N 39°19' E 001°35'1114.4
2014-Sep-20 03:33N 39°14' E 001°48'1514.7
2014-Sep-20 02:33N 39°08' E 002°05'1514.7
2014-Sep-20 01:33N 39°03' E 002°22'1514.9
2014-Sep-20 00:34N 38°58' E 002°41'1514.9
2014-Sep-19 23:33N 38°55' E 002°59'1514.8
2014-Sep-19 22:33N 38°52' E 003°18'1514.6
2014-Sep-19 21:33N 38°48' E 003°36'1514.3
2014-Sep-19 20:32N 38°45' E 003°55'1414.1
2014-Sep-19 19:33N 38°42' E 004°12'12513.7
2014-Sep-19 10:27N 38°15' E 006°47'7514.8
2014-Sep-19 05:21N 37°57' E 008°21'1114.0
2014-Sep-19 04:33N 37°55' E 008°34'1513.4
2014-Sep-19 03:26N 37°51' E 008°53'1213.3
2014-Sep-19 02:33N 37°49' E 009°07'1413.5
2014-Sep-19 01:33N 37°45' E 009°24'4213.4
2014-Sep-18 22:26N 37°39' E 010°16'2613.8
2014-Sep-18 20:33N 37°33' E 010°48'1413.9
2014-Sep-18 19:34N 37°30' E 011°05'  
Track history (hours):
 
Tides and Currents Weather Stations Pressure Air Temp Water Temp Dewpoint Dewpoint Depression Visibility Wind Speed Wind Dir Waves Ship Positions

Zim Panama

Last reported at 2014-Sep-20 13:32 UTC. Time now 2014-Sep-20 14:01 UTC.
Position N 39°26' W 000°20'.

Length 294.12 m; beam 32.2 m; draft 9.45 m.

Type: Ship (hazmat cat C). MMSI: 235474000.

Date/timePositionNaut miles runAvg speedWind from/ knotsBaromVisibWave heightAir tempDewpointWater temp
2014-Sep-20 13:32N 39°26' W 000°20'0 0.0
2014-Sep-20 12:32N 39°26' W 000°20'0 0.0
2014-Sep-20 11:32N 39°26' W 000°20'0 0.1
2014-Sep-20 10:33N 39°26' W 000°19'6 6.1
2014-Sep-20 09:33N 39°25' W 000°12'8315.8
2014-Sep-20 04:18N 39°19' E 001°35'1114.4
2014-Sep-20 03:33N 39°14' E 001°48'1514.7
2014-Sep-20 02:33N 39°08' E 002°05'1514.7
2014-Sep-20 01:33N 39°03' E 002°22'1514.9
2014-Sep-20 00:34N 38°58' E 002°41'1514.9
2014-Sep-19 23:33N 38°55' E 002°59'1514.8
2014-Sep-19 22:33N 38°52' E 003°18'1514.6
2014-Sep-19 21:33N 38°48' E 003°36'1514.3
2014-Sep-19 20:32N 38°45' E 003°55'1414.1
2014-Sep-19 19:33N 38°42' E 004°12'12513.7
2014-Sep-19 10:27N 38°15' E 006°47'7514.8
2014-Sep-19 05:21N 37°57' E 008°21'1114.0
2014-Sep-19 04:33N 37°55' E 008°34'1513.4
2014-Sep-19 03:26N 37°51' E 008°53'1213.3
2014-Sep-19 02:33N 37°49' E 009°07'1413.5
2014-Sep-19 01:33N 37°45' E 009°24'4213.4
2014-Sep-18 22:26N 37°39' E 010°16'2613.8
2014-Sep-18 20:33N 37°33' E 010°48'1413.9
2014-Sep-18 19:34N 37°30' E 011°05'  

Dump ship's entire track history